M/y Tweener — WDH5312 — position and weather

sailwx.info

Track history (hours):
 
Tides and Currents Weather Stations Pressure Air Temp Water Temp Dewpoint Dewpoint Depression Visibility Wind Speed Wind Dir Waves Ship Positions

M/y Tweener

Owner: Kocher III, Thomas L, Fort Lauderdale, FL. More information available from US FCC via Universal Licensing System and Coast Guard Vessel Documentation Center.

Last reported at 2017-Nov-25 20:47 UTC. Time now 2017-Dec-15 04:40 UTC.
Position N 33°37' W 118°56'.
Warning: this ship's position is 19 days out of date.

Length 33 m.

Type: Pleasure craft. MMSI: 367626680.

Date/timePositionNaut miles runAvg speedWind from/ knotsBaromVisibWave heightAir tempDewpointWater temp
2017-Nov-25 20:47N 33°37' W 118°56'615.9
2017-Nov-25 20:26N 33°39' W 119°02'816.1
2017-Nov-25 19:56N 33°43' W 119°11'716.4
2017-Nov-25 19:29N 33°45' W 119°20'816.1
2017-Nov-25 18:59N 33°48' W 119°29'11 8.0
2017-Nov-25 17:37N 33°54' W 119°40'1114.5
2017-Nov-25 16:51N 33°57' W 119°53'513.0
2017-Nov-25 16:29N 33°59' W 119°58'0 0.0
2017-Nov-24 17:34N 33°59' W 119°59'0 1.0
2017-Nov-24 17:19N 33°59' W 119°58'612.6
2017-Nov-24 16:49N 34°04' W 120°03'616.1
2017-Nov-24 16:28N 34°04' W 120°10'816.2
2017-Nov-24 16:00N 34°04' W 120°19'2 3.8
2017-Nov-24 15:28N 34°03' W 120°21'0 0.0
2017-Nov-24 14:44N 34°03' W 120°21'0 0.1
2017-Nov-24 14:26N 34°03' W 120°21'0 0.0
2017-Nov-24 13:56N 34°03' W 120°21'0 0.0
2017-Nov-24 13:30N 34°03' W 120°21'0 0.0
2017-Nov-24 12:53N 34°03' W 120°21'0 0.0
2017-Nov-24 12:05N 34°03' W 120°21'0 0.0
2017-Nov-24 11:50N 34°03' W 120°21'0 0.0
2017-Nov-24 11:11N 34°03' W 120°21'0 0.0
2017-Nov-24 10:56N 34°03' W 120°21'0 0.0
2017-Nov-24 10:17N 34°03' W 120°21'0 0.0
2017-Nov-24 08:46N 34°03' W 120°21'0 0.0
2017-Nov-24 08:28N 34°03' W 120°21'0 0.0
2017-Nov-24 07:47N 34°03' W 120°21'0 0.0
2017-Nov-24 06:36N 34°03' W 120°21'0 0.0
2017-Nov-24 06:16N 34°03' W 120°21'0 0.1
2017-Nov-24 05:57N 34°03' W 120°21'0 0.0
2017-Nov-24 05:19N 34°03' W 120°21'0 0.1
2017-Nov-24 04:58N 34°03' W 120°21'0 0.0
2017-Nov-24 04:29N 34°03' W 120°21'0 0.0
2017-Nov-24 03:45N 34°03' W 120°21'0 0.1
2017-Nov-24 03:26N 34°03' W 120°21'0 0.1
2017-Nov-24 02:52N 34°03' W 120°21'0 0.1
2017-Nov-24 02:20N 34°03' W 120°21'0 0.0
2017-Nov-24 01:58N 34°03' W 120°21'0 0.1
2017-Nov-24 01:30N 34°03' W 120°21'0 0.0
2017-Nov-24 00:56N 34°03' W 120°21'0 0.0
2017-Nov-23 23:32N 34°03' W 120°21'0 0.0
2017-Nov-23 23:23N 34°03' W 120°21'2 4.6
2017-Nov-23 22:54N 34°05' W 120°22'615.4
2017-Nov-23 22:30N 34°12' W 120°22'815.4
2017-Nov-23 21:57N 34°20' W 120°24'614.0
2017-Nov-23 21:31N 34°26' W 120°25'2 2.7
2017-Nov-23 20:56N 34°27' W 120°27'1 2.8
2017-Nov-23 20:30N 34°26' W 120°25'713.4
2017-Nov-23 19:59N 34°26' W 120°17'912.7
2017-Nov-23 19:16N 34°26' W 120°06'1314.0
2017-Nov-23 18:19N 34°23' W 119°50'812.7
2017-Nov-23 17:43N 34°24' W 119°41'0 0.0
2017-Nov-23 08:19N 34°24' W 119°41'0 0.1
2017-Nov-23 03:49N 34°24' W 119°41'514.4
2017-Nov-23 03:28N 34°21' W 119°37'1115.9
2017-Nov-23 02:48N 34°15' W 119°26'1211.3
2017-Nov-23 01:47N 34°10' W 119°13'0 0.0
2017-Nov-23 01:23N 34°10' W 119°13'0 0.0
2017-Nov-22 23:59N 34°10' W 119°13'0 0.0
2017-Nov-22 23:25N 34°10' W 119°13'0 0.0
2017-Nov-22 22:58N 34°10' W 119°13'0 0.0
2017-Nov-22 22:25N 34°10' W 119°13'0 0.0
2017-Nov-22 21:58N 34°10' W 119°13'0 0.0
2017-Nov-22 21:25N 34°10' W 119°13'0 1.0
2017-Nov-22 20:57N 34°09' W 119°14'511.0
2017-Nov-22 20:30N 34°06' W 119°10'815.5
2017-Nov-22 19:59N 34°03' W 119°00'  
Track history (hours):
 
Tides and Currents Weather Stations Pressure Air Temp Water Temp Dewpoint Dewpoint Depression Visibility Wind Speed Wind Dir Waves Ship Positions

M/y Tweener

Owner: Kocher III, Thomas L, Fort Lauderdale, FL. More information available from US FCC via Universal Licensing System and Coast Guard Vessel Documentation Center.

Last reported at 2017-Nov-25 20:47 UTC. Time now 2017-Dec-15 04:40 UTC.
Position N 33°37' W 118°56'.
Warning: this ship's position is 19 days out of date.

Length 33 m.

Type: Pleasure craft. MMSI: 367626680.

Date/timePositionNaut miles runAvg speedWind from/ knotsBaromVisibWave heightAir tempDewpointWater temp
2017-Nov-25 20:47N 33°37' W 118°56'615.9
2017-Nov-25 20:26N 33°39' W 119°02'816.1
2017-Nov-25 19:56N 33°43' W 119°11'716.4
2017-Nov-25 19:29N 33°45' W 119°20'816.1
2017-Nov-25 18:59N 33°48' W 119°29'11 8.0
2017-Nov-25 17:37N 33°54' W 119°40'1114.5
2017-Nov-25 16:51N 33°57' W 119°53'513.0
2017-Nov-25 16:29N 33°59' W 119°58'0 0.0
2017-Nov-24 17:34N 33°59' W 119°59'0 1.0
2017-Nov-24 17:19N 33°59' W 119°58'612.6
2017-Nov-24 16:49N 34°04' W 120°03'616.1
2017-Nov-24 16:28N 34°04' W 120°10'816.2
2017-Nov-24 16:00N 34°04' W 120°19'2 3.8
2017-Nov-24 15:28N 34°03' W 120°21'0 0.0
2017-Nov-24 14:44N 34°03' W 120°21'0 0.1
2017-Nov-24 14:26N 34°03' W 120°21'0 0.0
2017-Nov-24 13:56N 34°03' W 120°21'0 0.0
2017-Nov-24 13:30N 34°03' W 120°21'0 0.0
2017-Nov-24 12:53N 34°03' W 120°21'0 0.0
2017-Nov-24 12:05N 34°03' W 120°21'0 0.0
2017-Nov-24 11:50N 34°03' W 120°21'0 0.0
2017-Nov-24 11:11N 34°03' W 120°21'0 0.0
2017-Nov-24 10:56N 34°03' W 120°21'0 0.0
2017-Nov-24 10:17N 34°03' W 120°21'0 0.0
2017-Nov-24 08:46N 34°03' W 120°21'0 0.0
2017-Nov-24 08:28N 34°03' W 120°21'0 0.0
2017-Nov-24 07:47N 34°03' W 120°21'0 0.0
2017-Nov-24 06:36N 34°03' W 120°21'0 0.0
2017-Nov-24 06:16N 34°03' W 120°21'0 0.1
2017-Nov-24 05:57N 34°03' W 120°21'0 0.0
2017-Nov-24 05:19N 34°03' W 120°21'0 0.1
2017-Nov-24 04:58N 34°03' W 120°21'0 0.0
2017-Nov-24 04:29N 34°03' W 120°21'0 0.0
2017-Nov-24 03:45N 34°03' W 120°21'0 0.1
2017-Nov-24 03:26N 34°03' W 120°21'0 0.1
2017-Nov-24 02:52N 34°03' W 120°21'0 0.1
2017-Nov-24 02:20N 34°03' W 120°21'0 0.0
2017-Nov-24 01:58N 34°03' W 120°21'0 0.1
2017-Nov-24 01:30N 34°03' W 120°21'0 0.0
2017-Nov-24 00:56N 34°03' W 120°21'0 0.0
2017-Nov-23 23:32N 34°03' W 120°21'0 0.0
2017-Nov-23 23:23N 34°03' W 120°21'2 4.6
2017-Nov-23 22:54N 34°05' W 120°22'615.4
2017-Nov-23 22:30N 34°12' W 120°22'815.4
2017-Nov-23 21:57N 34°20' W 120°24'614.0
2017-Nov-23 21:31N 34°26' W 120°25'2 2.7
2017-Nov-23 20:56N 34°27' W 120°27'1 2.8
2017-Nov-23 20:30N 34°26' W 120°25'713.4
2017-Nov-23 19:59N 34°26' W 120°17'912.7
2017-Nov-23 19:16N 34°26' W 120°06'1314.0
2017-Nov-23 18:19N 34°23' W 119°50'812.7
2017-Nov-23 17:43N 34°24' W 119°41'0 0.0
2017-Nov-23 08:19N 34°24' W 119°41'0 0.1
2017-Nov-23 03:49N 34°24' W 119°41'514.4
2017-Nov-23 03:28N 34°21' W 119°37'1115.9
2017-Nov-23 02:48N 34°15' W 119°26'1211.3
2017-Nov-23 01:47N 34°10' W 119°13'0 0.0
2017-Nov-23 01:23N 34°10' W 119°13'0 0.0
2017-Nov-22 23:59N 34°10' W 119°13'0 0.0
2017-Nov-22 23:25N 34°10' W 119°13'0 0.0
2017-Nov-22 22:58N 34°10' W 119°13'0 0.0
2017-Nov-22 22:25N 34°10' W 119°13'0 0.0
2017-Nov-22 21:58N 34°10' W 119°13'0 0.0
2017-Nov-22 21:25N 34°10' W 119°13'0 1.0
2017-Nov-22 20:57N 34°09' W 119°14'511.0
2017-Nov-22 20:30N 34°06' W 119°10'815.5
2017-Nov-22 19:59N 34°03' W 119°00'  

Dump ship's entire track history